KFEP/FEP METAR and TAF weather

Enter ICAO airport designator
Station Type Date Time Source
KFEP METAR 2020/09/19 05:15 UTC NOAA

KFEP 190515Z AUTO 10003KT 10SM CLR 05/05 A3040 RMK AO2 T00530048


Station Type Date Time Source
KFEP Decoded METAR 2020/09/19 05:15 UTC NOAA

Freeport, Albertus Airport, IL, United States (KFEP) 42-14-47N 089-34-56W
Sep 19, 2020 - 01:15 AM EDT / 2020.09.19 0515 UTC
Wind: from the E (100 degrees) at 3 MPH (3 KT):0
Visibility: 10 mile(s):0
Sky conditions: clear
Temperature: 41.5 F (5.3 C)
Dew Point: 40.6 F (4.8 C)
Relative Humidity: 96%
Pressure (altimeter): 30.4 in. Hg (1029 hPa)
ob: KFEP 190515Z AUTO 10003KT 10SM CLR 05/05 A3040 RMK AO2 T00530048
cycle: 5

Station Type Date Time Source
KFEP TAF UTC NOAA

Error!

Example: see airport list